createdAt,value
2018-02-02T00:01:54.726Z,80.40
2018-02-02T00:04:27.412Z,80.60
2018-02-02T00:06:59.907Z,80.70
2018-02-02T00:09:32.400Z,80.60
2018-02-02T00:12:04.930Z,81.20
2018-02-02T00:14:37.530Z,80.50
2018-02-02T00:17:10.131Z,80.60
2018-02-02T00:19:42.709Z,80.60
2018-02-02T00:22:15.285Z,80.60
2018-02-02T00:24:55.574Z,80.90
2018-02-02T00:27:29.063Z,80.90
2018-02-02T00:30:02.806Z,80.50
2018-02-02T00:32:35.292Z,80.50
2018-02-02T00:35:08.634Z,80.50
2018-02-02T00:37:41.755Z,80.60
2018-02-02T00:40:14.583Z,80.60
2018-02-02T00:42:47.309Z,80.60
2018-02-02T00:45:20.219Z,80.50
2018-02-02T00:47:52.642Z,80.80
2018-02-02T00:50:32.019Z,80.60
2018-02-02T00:53:04.709Z,80.60
2018-02-02T00:55:38.001Z,81.20
2018-02-02T00:58:10.630Z,80.50
2018-02-02T01:00:43.954Z,80.40
2018-02-02T01:03:16.703Z,80.40
2018-02-02T01:05:49.515Z,80.30
2018-02-02T01:08:24.064Z,80.10
2018-02-02T01:10:56.516Z,79.60
2018-02-02T01:13:29.162Z,79.20
2018-02-02T01:16:01.760Z,79.10
2018-02-02T01:18:35.905Z,79.20
2018-02-02T01:21:08.709Z,79.20
2018-02-02T01:23:41.152Z,79.30
2018-02-02T01:26:14.626Z,79.60
2018-02-02T01:28:46.948Z,79.60
2018-02-02T01:31:19.273Z,79.70
2018-02-02T01:33:51.603Z,79.70
2018-02-02T01:36:24.751Z,79.70
2018-02-02T01:38:57.527Z,79.70
2018-02-02T01:41:29.980Z,79.70
2018-02-02T01:44:02.377Z,79.70
2018-02-02T01:46:35.057Z,80.00
2018-02-02T01:49:09.068Z,79.90
2018-02-02T01:51:42.172Z,80.00
2018-02-02T01:54:15.422Z,79.40
2018-02-02T01:56:49.351Z,79.40
2018-02-02T01:59:21.815Z,79.20
2018-02-02T02:01:54.566Z,79.20
2018-02-02T02:04:27.771Z,79.30
2018-02-02T02:07:01.924Z,79.10
2018-02-02T02:09:34.568Z,79.10
2018-02-02T02:12:07.078Z,79.20
2018-02-02T02:14:40.200Z,79.30
2018-02-02T02:17:20.439Z,79.30
2018-02-02T02:19:53.236Z,79.20
2018-02-02T02:22:25.914Z,79.30
2018-02-02T02:24:59.267Z,79.50
2018-02-02T02:27:31.981Z,79.60
2018-02-02T02:30:04.582Z,79.70
2018-02-02T02:32:37.825Z,79.50
2018-02-02T02:35:10.539Z,79.80
2018-02-02T02:37:43.837Z,79.80
2018-02-02T02:40:16.561Z,79.80
2018-02-02T02:42:49.843Z,80.80
2018-02-02T02:45:22.460Z,80.00
2018-02-02T02:47:55.067Z,80.00
2018-02-02T02:50:28.487Z,79.90
2018-02-02T02:53:01.145Z,80.00
2018-02-02T02:55:34.445Z,80.00
2018-02-02T02:58:07.051Z,79.90
2018-02-02T03:00:40.421Z,79.80
2018-02-02T03:03:13.171Z,79.70
2018-02-02T03:05:45.713Z,79.80
2018-02-02T03:08:19.071Z,79.80
2018-02-02T03:10:52.035Z,79.90
2018-02-02T03:13:24.907Z,79.20
2018-02-02T03:15:58.237Z,79.80
2018-02-02T03:18:30.889Z,79.70
2018-02-02T03:21:03.424Z,79.50
2018-02-02T03:23:37.481Z,79.60
2018-02-02T03:26:10.065Z,79.60
2018-02-02T03:28:44.247Z,79.40
2018-02-02T03:31:16.638Z,79.40
2018-02-02T03:33:50.135Z,79.10
2018-02-02T03:36:23.559Z,79.10
2018-02-02T03:38:56.317Z,79.10
2018-02-02T03:41:29.563Z,79.70
2018-02-02T03:44:02.193Z,79.20
2018-02-02T03:46:34.721Z,79.30
2018-02-02T03:49:07.181Z,79.30
2018-02-02T03:51:39.817Z,79.70
2018-02-02T03:54:12.464Z,79.30
2018-02-02T03:56:45.651Z,78.80
2018-02-02T03:59:18.114Z,79.40
2018-02-02T04:01:51.413Z,79.50
2018-02-02T04:04:24.172Z,79.50
2018-02-02T04:06:58.310Z,79.40
2018-02-02T04:09:31.097Z,79.40
2018-02-02T04:12:05.172Z,79.60
2018-02-02T04:14:38.321Z,79.60
2018-02-02T04:17:11.414Z,79.80
2018-02-02T04:19:44.459Z,79.70
2018-02-02T04:22:17.159Z,79.70
2018-02-02T04:24:50.841Z,79.90
2018-02-02T04:27:23.437Z,79.80
2018-02-02T04:29:55.900Z,79.90
2018-02-02T04:32:28.231Z,79.90
2018-02-02T04:35:11.380Z,79.80
2018-02-02T04:37:50.939Z,79.90
2018-02-02T04:40:23.609Z,79.90
2018-02-02T04:42:57.926Z,79.70
2018-02-02T04:45:31.936Z,79.30
2018-02-02T04:48:05.615Z,79.30
2018-02-02T04:50:38.870Z,79.20
2018-02-02T04:53:12.234Z,79.20
2018-02-02T04:55:44.915Z,79.20
2018-02-02T04:58:17.380Z,79.30
2018-02-02T05:00:49.945Z,79.20
2018-02-02T05:03:22.415Z,79.00
2018-02-02T05:05:55.792Z,79.30
2018-02-02T05:08:29.253Z,79.40
2018-02-02T05:11:01.986Z,79.40
2018-02-02T05:13:35.160Z,79.40
2018-02-02T05:16:07.963Z,79.30
2018-02-02T05:18:40.636Z,79.30
2018-02-02T05:21:13.047Z,79.30
2018-02-02T05:23:45.477Z,78.90
2018-02-02T05:26:18.525Z,78.70
2018-02-02T05:28:51.863Z,78.50
2018-02-02T05:31:24.638Z,78.50
2018-02-02T05:33:56.986Z,78.60
2018-02-02T05:36:29.674Z,78.50
2018-02-02T05:39:02.255Z,78.40
2018-02-02T05:41:34.816Z,78.30
2018-02-02T05:44:08.057Z,78.40
2018-02-02T05:46:41.308Z,78.70
2018-02-02T05:49:14.647Z,78.60
2018-02-02T05:51:47.394Z,78.50
2018-02-02T05:54:20.012Z,78.50
2018-02-02T05:56:52.738Z,78.80
2018-02-02T05:59:26.159Z,78.80
2018-02-02T06:01:59.726Z,78.80
2018-02-02T06:04:33.050Z,78.80
2018-02-02T06:07:05.552Z,78.70
2018-02-02T06:09:37.918Z,78.60
2018-02-02T06:12:10.335Z,78.70
2018-02-02T06:14:42.995Z,78.50
2018-02-02T06:17:15.489Z,78.60
2018-02-02T06:19:48.800Z,78.40
2018-02-02T06:22:21.988Z,78.40
2018-02-02T06:24:54.881Z,78.40
2018-02-02T06:27:27.383Z,78.10
2018-02-02T06:29:59.887Z,77.70
2018-02-02T06:32:32.484Z,77.50
2018-02-02T06:35:05.957Z,77.50
2018-02-02T06:37:39.150Z,77.40
2018-02-02T06:40:12.200Z,77.40
2018-02-02T06:42:45.043Z,77.30
2018-02-02T06:45:18.488Z,77.10
2018-02-02T06:47:51.174Z,76.60
2018-02-02T06:50:24.383Z,77.00
2018-02-02T06:52:57.163Z,77.00
2018-02-02T06:55:30.755Z,77.00
2018-02-02T06:58:04.381Z,77.20
2018-02-02T07:00:38.548Z,77.10
2018-02-02T07:03:12.791Z,77.10
2018-02-02T07:05:45.769Z,77.10
2018-02-02T07:08:19.397Z,77.10
2018-02-02T07:10:52.165Z,77.10
2018-02-02T07:13:24.717Z,77.00
2018-02-02T07:15:57.930Z,76.90
2018-02-02T07:18:30.611Z,76.90
2018-02-02T07:21:03.169Z,77.00
2018-02-02T07:23:35.842Z,77.10
2018-02-02T07:26:09.213Z,77.50
2018-02-02T07:28:41.729Z,77.50
2018-02-02T07:31:14.127Z,77.30
2018-02-02T07:33:47.649Z,77.20
2018-02-02T07:36:19.980Z,77.00
2018-02-02T07:38:52.487Z,76.70
2018-02-02T07:41:25.138Z,76.90
2018-02-02T07:43:58.715Z,76.40
2018-02-02T07:46:31.184Z,76.30
2018-02-02T07:49:04.039Z,76.10
2018-02-02T07:51:36.909Z,76.20
2018-02-02T07:54:10.150Z,75.30
2018-02-02T07:56:42.664Z,75.20
2018-02-02T07:59:15.151Z,75.50
2018-02-02T08:01:47.788Z,75.60
2018-02-02T08:04:20.543Z,75.10
2018-02-02T08:06:54.673Z,74.90
2018-02-02T08:09:27.648Z,74.90
2018-02-02T08:12:00.733Z,74.60
2018-02-02T08:14:33.606Z,74.60
2018-02-02T08:17:06.150Z,74.40
2018-02-02T08:19:38.660Z,74.20
2018-02-02T08:22:11.212Z,74.00
2018-02-02T08:24:44.385Z,74.10
2018-02-02T08:27:17.283Z,74.10
2018-02-02T08:29:50.095Z,73.90
2018-02-02T08:32:23.347Z,73.10
2018-02-02T08:34:56.517Z,72.80
2018-02-02T08:37:30.029Z,72.60
2018-02-02T08:40:03.042Z,72.70
2018-02-02T08:42:35.443Z,73.00
2018-02-02T08:45:09.119Z,73.00
2018-02-02T08:47:42.352Z,72.70
2018-02-02T08:50:14.884Z,72.60
2018-02-02T08:52:47.627Z,72.50
2018-02-02T08:55:21.161Z,72.10
2018-02-02T08:57:55.058Z,72.10
2018-02-02T09:00:28.397Z,72.00
2018-02-02T09:03:01.737Z,71.40
2018-02-02T09:05:34.740Z,71.40
2018-02-02T09:08:07.229Z,71.30
2018-02-02T09:10:40.469Z,71.10
2018-02-02T09:13:13.275Z,71.20
2018-02-02T09:15:46.990Z,71.50
2018-02-02T09:18:20.177Z,70.50
2018-02-02T09:20:53.745Z,69.90
2018-02-02T09:23:26.208Z,69.90
2018-02-02T09:25:58.750Z,69.40
2018-02-02T09:28:31.323Z,69.40
2018-02-02T09:31:03.941Z,69.30
2018-02-02T09:33:38.048Z,69.10
2018-02-02T09:36:11.671Z,69.10
2018-02-02T09:38:44.163Z,69.10
2018-02-02T09:41:16.641Z,69.30
2018-02-02T09:43:49.168Z,69.60
2018-02-02T09:46:21.642Z,69.00
2018-02-02T09:48:54.513Z,68.90
2018-02-02T09:51:28.577Z,68.10
2018-02-02T09:54:01.381Z,68.10
2018-02-02T09:56:34.818Z,68.80
2018-02-02T09:59:08.237Z,68.20
2018-02-02T10:01:41.635Z,67.50
2018-02-02T10:04:14.981Z,67.60
2018-02-02T10:06:47.673Z,67.40
2018-02-02T10:09:20.039Z,67.70
2018-02-02T10:11:52.620Z,67.10
2018-02-02T10:14:25.306Z,66.30
2018-02-02T10:16:57.836Z,65.80
2018-02-02T10:19:30.578Z,65.20
2018-02-02T10:22:03.230Z,64.80
2018-02-02T10:24:36.543Z,63.00
2018-02-02T10:27:10.149Z,63.30
2018-02-02T10:29:42.868Z,62.90
2018-02-02T10:32:16.192Z,64.10
2018-02-02T10:34:49.522Z,63.40
2018-02-02T10:37:22.037Z,63.10
2018-02-02T10:39:55.287Z,60.80
2018-02-02T10:42:29.396Z,60.60
2018-02-02T10:45:02.019Z,60.60
2018-02-02T10:47:34.541Z,60.30
2018-02-02T10:50:07.031Z,60.80
2018-02-02T10:52:39.568Z,60.60
2018-02-02T10:55:12.706Z,61.40
2018-02-02T10:57:45.321Z,61.40
2018-02-02T11:00:18.748Z,61.10
2018-02-02T11:02:58.046Z,63.00
2018-02-02T11:05:30.568Z,63.00
2018-02-02T11:08:03.131Z,61.20
2018-02-02T11:10:35.602Z,60.90
2018-02-02T11:13:08.101Z,60.20
2018-02-02T11:15:40.619Z,60.90
2018-02-02T11:18:13.128Z,61.20
2018-02-02T11:20:45.684Z,60.90
2018-02-02T11:23:28.827Z,60.00
2018-02-02T11:26:02.033Z,60.40
2018-02-02T11:28:35.309Z,60.90
2018-02-02T11:31:08.879Z,60.90
2018-02-02T11:33:41.638Z,60.90
2018-02-02T11:36:14.351Z,59.40
2018-02-02T11:38:46.843Z,58.90
2018-02-02T11:41:19.362Z,59.90
2018-02-02T11:43:51.775Z,60.80
2018-02-02T11:46:24.961Z,59.30
2018-02-02T11:48:57.744Z,59.30
2018-02-02T11:51:31.094Z,60.20
2018-02-02T11:54:03.639Z,58.10
2018-02-02T11:56:36.048Z,58.20
2018-02-02T11:59:08.763Z,58.10
2018-02-02T12:01:41.909Z,58.60
2018-02-02T12:04:15.063Z,58.60
2018-02-02T12:06:48.269Z,60.70
2018-02-02T12:09:21.554Z,58.40
2018-02-02T12:11:55.101Z,59.40
2018-02-02T12:14:28.500Z,58.10
2018-02-02T12:17:01.192Z,58.10
2018-02-02T12:19:33.759Z,59.00
2018-02-02T12:25:12.302Z,57.60
2018-02-02T12:27:51.487Z,58.50
2018-02-02T12:33:41.797Z,58.50
2018-02-02T12:36:22.246Z,57.90
2018-02-02T12:38:55.294Z,58.50
2018-02-02T12:41:27.990Z,57.90
2018-02-02T12:44:01.206Z,57.90
2018-02-02T12:46:33.947Z,57.90
2018-02-02T12:49:07.352Z,57.40
2018-02-02T12:51:40.111Z,58.40
2018-02-02T12:54:13.275Z,57.80
2018-02-02T12:56:45.745Z,59.00
2018-02-02T12:59:18.240Z,59.10
2018-02-02T13:01:50.687Z,58.00
2018-02-02T13:04:23.211Z,57.10
2018-02-02T13:06:55.732Z,56.50
2018-02-02T13:09:28.503Z,56.40
2018-02-02T13:12:01.161Z,56.80
2018-02-02T13:14:34.886Z,55.20
2018-02-02T13:17:07.469Z,55.20
2018-02-02T13:19:40.259Z,55.30
2018-02-02T13:22:13.757Z,54.90
2018-02-02T13:24:46.307Z,54.90
2018-02-02T13:27:20.251Z,56.90
2018-02-02T13:29:53.453Z,55.60
2018-02-02T13:32:25.844Z,55.60
2018-02-02T13:34:58.945Z,57.20
2018-02-02T13:37:32.104Z,57.20
2018-02-02T13:40:05.008Z,57.50
2018-02-02T13:42:39.071Z,57.10
2018-02-02T13:45:12.262Z,57.20
2018-02-02T13:47:44.833Z,57.30
2018-02-02T13:50:18.331Z,56.00
2018-02-02T13:52:51.994Z,55.90
2018-02-02T13:55:25.411Z,56.10
2018-02-02T13:57:58.323Z,56.10
2018-02-02T14:00:30.795Z,56.70
2018-02-02T14:03:04.930Z,57.00
2018-02-02T14:05:37.456Z,57.00
2018-02-02T14:08:10.632Z,56.50
2018-02-02T14:10:43.255Z,56.50
2018-02-02T14:13:15.901Z,55.50
2018-02-02T14:15:48.248Z,55.20
2018-02-02T14:18:20.681Z,55.10
2018-02-02T14:20:53.789Z,55.90
2018-02-02T14:23:26.567Z,55.80
2018-02-02T14:25:59.021Z,56.20
2018-02-02T14:28:31.689Z,56.70
2018-02-02T14:31:04.339Z,56.00
2018-02-02T14:33:37.725Z,57.20
2018-02-02T14:36:11.097Z,57.60
2018-02-02T14:38:43.929Z,57.60
2018-02-02T14:41:16.376Z,57.00
2018-02-02T14:43:48.864Z,56.30
2018-02-02T14:46:22.168Z,58.20
2018-02-02T14:48:55.679Z,57.70
2018-02-02T14:51:28.123Z,57.60
2018-02-02T14:54:00.599Z,59.20
2018-02-02T14:56:33.071Z,57.20
2018-02-02T14:59:05.875Z,56.40
2018-02-02T15:01:39.321Z,55.60
2018-02-02T15:04:12.682Z,54.80
2018-02-02T15:06:45.112Z,53.70
2018-02-02T15:09:17.736Z,52.90
2018-02-02T15:11:51.909Z,53.70
2018-02-02T15:14:25.129Z,53.50
2018-02-02T15:16:59.129Z,54.20
2018-02-02T15:19:31.741Z,54.20
2018-02-02T15:22:05.037Z,54.60
2018-02-02T15:24:38.888Z,54.70
2018-02-02T15:27:11.397Z,54.70
2018-02-02T15:29:43.813Z,54.70
2018-02-02T15:32:16.391Z,55.70
2018-02-02T15:34:49.878Z,56.20
2018-02-02T15:37:22.327Z,55.00
2018-02-02T15:39:55.687Z,55.00
2018-02-02T15:42:28.627Z,54.90
2018-02-02T15:45:01.158Z,55.40
2018-02-02T15:47:34.391Z,56.50
2018-02-02T15:50:07.251Z,56.60
2018-02-02T15:52:39.733Z,55.90
2018-02-02T15:55:12.873Z,57.40
2018-02-02T15:57:45.570Z,57.40
2018-02-02T16:00:18.107Z,57.70
2018-02-02T16:02:51.465Z,57.90
2018-02-02T16:05:24.057Z,58.30
2018-02-02T16:07:58.169Z,59.30
2018-02-02T16:10:31.020Z,59.30
2018-02-02T16:13:03.741Z,59.30
2018-02-02T16:15:37.070Z,59.40
2018-02-02T16:18:10.399Z,60.30
2018-02-02T16:20:43.328Z,59.80
2018-02-02T16:23:15.726Z,59.50
2018-02-02T16:25:49.192Z,59.10
2018-02-02T16:28:21.599Z,59.00
2018-02-02T16:30:54.086Z,59.00
2018-02-02T16:33:26.415Z,59.10
2018-02-02T16:35:58.956Z,59.50
2018-02-02T16:38:31.431Z,59.90
2018-02-02T16:41:04.145Z,60.50
2018-02-02T16:43:37.512Z,60.30
2018-02-02T16:46:10.319Z,59.90
2018-02-02T16:48:43.681Z,60.00
2018-02-02T16:51:16.389Z,60.50
2018-02-02T16:53:49.437Z,60.60
2018-02-02T16:56:22.671Z,60.80
2018-02-02T16:58:56.097Z,60.00
2018-02-02T17:01:28.838Z,60.00
2018-02-02T17:04:01.395Z,60.00
2018-02-02T17:06:34.006Z,60.90
2018-02-02T17:09:06.580Z,61.20
2018-02-02T17:11:39.211Z,60.60
2018-02-02T17:14:11.763Z,60.60
2018-02-02T17:16:44.499Z,60.50
2018-02-02T17:19:18.610Z,60.40
2018-02-02T17:21:52.223Z,61.30
2018-02-02T17:24:25.693Z,61.40
2018-02-02T17:26:58.326Z,61.50
2018-02-02T17:29:30.655Z,60.70
2018-02-02T17:32:03.380Z,60.50
2018-02-02T17:34:36.596Z,61.20
2018-02-02T17:37:09.198Z,61.60
2018-02-02T17:39:42.467Z,61.10
2018-02-02T17:42:14.969Z,61.60
2018-02-02T17:44:47.451Z,62.60
2018-02-02T17:47:21.647Z,60.60
2018-02-02T17:49:54.286Z,60.70
2018-02-02T17:52:27.088Z,61.00
2018-02-02T17:54:59.873Z,60.80
2018-02-02T17:57:32.955Z,60.70
2018-02-02T18:00:06.000Z,61.20
2018-02-02T18:02:46.229Z,61.20
2018-02-02T18:05:18.766Z,61.50
2018-02-02T18:07:51.699Z,61.80
2018-02-02T18:10:24.952Z,61.70
2018-02-02T18:12:57.966Z,61.70
2018-02-02T18:15:31.887Z,60.50
2018-02-02T18:18:05.070Z,60.50
2018-02-02T18:20:38.147Z,59.80
2018-02-02T18:23:11.861Z,60.20
2018-02-02T18:25:48.358Z,60.20
2018-02-02T18:28:22.220Z,60.30
2018-02-02T18:30:55.529Z,60.50
2018-02-02T18:33:28.321Z,60.50
2018-02-02T18:36:01.046Z,60.90
2018-02-02T18:38:34.445Z,60.90
2018-02-02T18:41:10.997Z,60.90
2018-02-02T18:43:46.374Z,60.80
2018-02-02T18:46:19.959Z,61.10
2018-02-02T18:48:54.878Z,61.20
2018-02-02T18:51:30.412Z,61.20
2018-02-02T18:54:12.862Z,61.20
2018-02-02T18:56:47.553Z,61.30
2018-02-02T18:59:22.593Z,61.40
2018-02-02T19:01:58.804Z,61.20
2018-02-02T19:04:33.944Z,61.10
2018-02-02T19:07:09.414Z,61.60
2018-02-02T19:09:44.495Z,61.70
2018-02-02T19:12:19.616Z,61.80
2018-02-02T19:14:55.549Z,61.90
2018-02-02T19:17:30.641Z,62.20
2018-02-02T19:20:06.284Z,62.20
2018-02-02T19:22:41.468Z,61.80
2018-02-02T19:25:17.622Z,62.10
2018-02-02T19:27:53.388Z,61.70
2018-02-02T19:30:28.459Z,61.60
2018-02-02T19:33:04.746Z,62.00
2018-02-02T19:35:40.443Z,61.90
2018-02-02T19:38:18.119Z,62.10
2018-02-02T19:40:53.490Z,62.10
2018-02-02T19:43:28.799Z,62.00
2018-02-02T19:46:04.377Z,61.90
2018-02-02T19:48:39.636Z,62.30
2018-02-02T19:51:16.737Z,62.20
2018-02-02T19:53:52.759Z,62.20
2018-02-02T19:56:28.585Z,62.30
2018-02-02T19:59:04.900Z,63.00
2018-02-02T20:01:41.601Z,63.10
2018-02-02T20:04:16.819Z,62.80
2018-02-02T20:06:53.397Z,62.60
2018-02-02T20:09:29.860Z,62.50
2018-02-02T20:12:06.275Z,62.40
2018-02-02T20:14:42.650Z,62.40
2018-02-02T20:17:18.352Z,62.20
2018-02-02T20:19:53.714Z,62.00
2018-02-02T20:22:40.936Z,62.70
2018-02-02T20:25:16.451Z,62.30
2018-02-02T20:27:51.776Z,62.50
2018-02-02T20:30:27.260Z,62.50
2018-02-02T20:33:03.070Z,62.50
2018-02-02T20:35:40.182Z,62.80
2018-02-02T20:38:15.052Z,62.80
2018-02-02T20:40:50.338Z,62.60
2018-02-02T20:43:25.973Z,62.70
2018-02-02T20:46:02.089Z,62.50
2018-02-02T20:48:37.651Z,62.40
2018-02-02T20:51:13.552Z,62.40
2018-02-02T20:53:49.095Z,62.50
2018-02-02T20:56:24.486Z,62.40
2018-02-02T20:59:00.733Z,62.80
2018-02-02T21:01:35.736Z,63.50
2018-02-02T21:04:11.364Z,63.20
2018-02-02T21:06:53.803Z,63.50
2018-02-02T21:09:29.491Z,63.60
2018-02-02T21:12:05.489Z,63.80
2018-02-02T21:14:41.332Z,63.90
2018-02-02T21:17:16.794Z,63.90
2018-02-02T21:19:53.998Z,63.40
2018-02-02T21:22:33.332Z,63.40
2018-02-02T21:25:09.622Z,63.80
2018-02-02T21:27:44.799Z,63.80
2018-02-02T21:30:20.290Z,64.50
2018-02-02T21:32:54.909Z,64.50
2018-02-02T21:35:30.304Z,64.10
2018-02-02T21:38:05.777Z,64.10
2018-02-02T21:40:41.541Z,64.10
2018-02-02T21:43:16.886Z,64.10
2018-02-02T21:45:52.828Z,63.70
2018-02-02T21:48:27.912Z,63.90
2018-02-02T21:51:06.279Z,63.80
2018-02-02T21:53:41.901Z,63.80
2018-02-02T21:56:17.518Z,63.80
2018-02-02T22:01:51.080Z,63.80
2018-02-02T22:04:25.681Z,63.60
2018-02-02T22:06:58.830Z,63.70
2018-02-02T22:09:31.588Z,63.70
2018-02-02T22:12:05.143Z,63.80
2018-02-02T22:14:39.595Z,64.00
2018-02-02T22:17:13.003Z,64.00
2018-02-02T22:19:46.457Z,64.10
2018-02-02T22:22:19.826Z,64.40
2018-02-02T22:24:53.285Z,64.40
2018-02-02T22:27:26.850Z,63.90
2018-02-02T22:30:01.096Z,64.60
2018-02-02T22:32:33.857Z,63.90
2018-02-02T22:35:07.954Z,64.10
2018-02-02T22:37:40.546Z,64.10
2018-02-02T22:40:14.003Z,64.40
2018-02-02T22:42:46.773Z,64.40
2018-02-02T22:45:20.242Z,64.40
2018-02-02T22:47:53.382Z,64.70
2018-02-02T22:50:25.851Z,64.80
2018-02-02T22:52:58.300Z,64.80
2018-02-02T22:55:30.789Z,64.80
2018-02-02T22:58:05.502Z,64.30
2018-02-02T23:00:38.932Z,64.30
2018-02-02T23:03:11.626Z,64.40
2018-02-02T23:05:45.063Z,64.70
2018-02-02T23:08:17.819Z,64.70
2018-02-02T23:10:51.129Z,65.50
2018-02-02T23:13:23.871Z,64.80
2018-02-02T23:15:57.082Z,64.50
2018-02-02T23:18:30.558Z,64.80
2018-02-02T23:21:03.513Z,64.70
2018-02-02T23:23:36.878Z,64.60
2018-02-02T23:26:10.152Z,64.80
2018-02-02T23:28:42.607Z,64.50
2018-02-02T23:31:15.101Z,64.70
2018-02-02T23:33:48.371Z,64.90
2018-02-02T23:36:21.269Z,64.80
2018-02-02T23:38:54.939Z,64.50
2018-02-02T23:41:28.871Z,64.80
2018-02-02T23:44:01.893Z,64.80
2018-02-02T23:46:35.178Z,64.80
2018-02-02T23:49:08.659Z,65.00
2018-02-02T23:51:41.035Z,65.30
2018-02-02T23:54:13.601Z,65.30
2018-02-02T23:56:46.424Z,65.30
2018-02-02T23:59:18.829Z,65.10
